Almeida Garret — CSKB — position and weather

sailwx.info

Track history (hours):
 
Tides and Currents Weather Stations Pressure Air Temp Water Temp Dewpoint Dewpoint Depression Visibility Wind Speed Wind Dir Waves Ship Positions

Almeida Garret

Last reported at 2017-Sep-21 07:01 UTC. Time now 2017-Sep-21 07:12 UTC.
Position N 38°40' W 009°07'.

Length 49 m.

Type: Ship (hazmat cat A). MMSI: 263701340.

Date/timePositionNaut miles runAvg speedWind from/ knotsBaromVisibWave heightAir tempDewpointWater temp
2017-Sep-21 07:01N 38°40' W 009°07'1 2.5
2017-Sep-21 06:30N 38°39' W 009°06'1 1.7
2017-Sep-21 06:00N 38°39' W 009°05'0 0.0
2017-Sep-21 05:30N 38°39' W 009°05'0 0.0
2017-Sep-20 20:21N 38°39' W 009°05'2 7.0
2017-Sep-20 20:01N 38°40' W 009°08'0 0.3
2017-Sep-20 19:31N 38°40' W 009°08'3 5.2
2017-Sep-20 19:00N 38°39' W 009°05'2 3.7
2017-Sep-20 18:31N 38°40' W 009°07'0 0.8
2017-Sep-20 18:01N 38°40' W 009°06'3 5.8
2017-Sep-20 17:30N 38°42' W 009°08'4 8.3
2017-Sep-20 17:00N 38°39' W 009°05'4 8.2
2017-Sep-20 16:31N 38°42' W 009°08'2 4.8
2017-Sep-20 16:01N 38°40' W 009°07'1 1.3
2017-Sep-20 15:31N 38°41' W 009°08'3 5.3
2017-Sep-20 15:01N 38°39' W 009°05'3 3.4
2017-Sep-20 14:01N 38°42' W 009°08'3 5.4
2017-Sep-20 13:30N 38°39' W 009°06'3 5.4
2017-Sep-20 13:01N 38°42' W 009°08'3 5.5
2017-Sep-20 12:31N 38°39' W 009°06'3 6.3
2017-Sep-20 12:00N 38°42' W 009°08'3 6.7
2017-Sep-20 11:31N 38°39' W 009°06'3 6.0
2017-Sep-20 11:00N 38°42' W 009°08'3 5.7
2017-Sep-20 10:31N 38°39' W 009°06'1 1.3
2017-Sep-20 10:00N 38°39' W 009°05'0 0.0
2017-Sep-20 09:30N 38°39' W 009°05'4 8.1
2017-Sep-20 09:01N 38°42' W 009°08'4 8.3
2017-Sep-20 08:30N 38°39' W 009°05'4 8.4
2017-Sep-20 08:01N 38°42' W 009°08'4 8.2
2017-Sep-20 07:30N 38°39' W 009°05'3 5.7
2017-Sep-20 07:01N 38°41' W 009°08'1 2.2
2017-Sep-20 06:31N 38°40' W 009°07'1 2.4
2017-Sep-20 06:01N 38°39' W 009°06'1 1.3
2017-Sep-20 05:30N 38°39' W 009°05'0 0.0
2017-Sep-19 20:20N 38°39' W 009°05'2 5.6
2017-Sep-19 20:00N 38°40' W 009°07'1 1.8
2017-Sep-19 19:30N 38°41' W 009°08'3 5.5
2017-Sep-19 19:00N 38°39' W 009°05'2 3.7
2017-Sep-19 18:30N 38°40' W 009°07'0 1.0
2017-Sep-19 18:01N 38°40' W 009°06'3 5.9
2017-Sep-19 17:30N 38°42' W 009°08'4 8.3
2017-Sep-19 17:00N 38°39' W 009°05'4 7.9
2017-Sep-19 16:31N 38°42' W 009°08'2 4.5
2017-Sep-19 16:00N 38°40' W 009°07'0 0.7
2017-Sep-19 15:31N 38°40' W 009°07'2 4.7
2017-Sep-19 15:00N 38°39' W 009°05'0 0.0
2017-Sep-19 14:30N 38°39' W 009°05'3 7.0
2017-Sep-19 14:00N 38°41' W 009°08'3 5.4
2017-Sep-19 13:30N 38°39' W 009°06'3 6.0
2017-Sep-19 13:00N 38°42' W 009°08'3 6.2
2017-Sep-19 12:31N 38°39' W 009°06'1 1.1
2017-Sep-19 11:58N 38°39' W 009°05'0 0.0
2017-Sep-19 11:30N 38°39' W 009°05'0 0.0
2017-Sep-19 10:58N 38°39' W 009°05'0 0.0
2017-Sep-19 10:31N 38°39' W 009°05'0 0.0
2017-Sep-19 09:58N 38°39' W 009°05'3 7.3
2017-Sep-19 09:30N 38°42' W 009°08'3 5.9
2017-Sep-19 09:00N 38°39' W 009°06'1 1.4
2017-Sep-19 08:30N 38°39' W 009°05'4 7.4
2017-Sep-19 08:01N 38°42' W 009°08'2 3.7
2017-Sep-19 07:31N 38°40' W 009°07'1 2.1
2017-Sep-19 07:00N 38°40' W 009°06'3 6.4
2017-Sep-19 06:31N 38°42' W 009°08'4 8.3
2017-Sep-19 06:00N 38°39' W 009°05'4 8.2
2017-Sep-19 05:30N 38°42' W 009°08'4 7.6
2017-Sep-19 05:00N 38°39' W 009°05'4 7.5
2017-Sep-19 04:31N 38°42' W 009°08'4 8.2
2017-Sep-19 04:01N 38°39' W 009°05'0 0.1
2017-Sep-19 01:19N 38°39' W 009°05'413.0
2017-Sep-19 01:00N 38°42' W 009°08'4 8.3
2017-Sep-19 00:30N 38°39' W 009°05'4 8.2
2017-Sep-19 00:00N 38°42' W 009°08'4 8.4
2017-Sep-18 23:30N 38°39' W 009°05'4 8.4
2017-Sep-18 23:00N 38°42' W 009°08'4 8.2
2017-Sep-18 22:30N 38°39' W 009°05'3 7.0
2017-Sep-18 22:00N 38°41' W 009°08'3 5.4
2017-Sep-18 21:30N 38°39' W 009°06'3 5.5
2017-Sep-18 21:00N 38°42' W 009°08'3 5.3
2017-Sep-18 20:31N 38°39' W 009°06'1 2.0
2017-Sep-18 20:00N 38°39' W 009°05'0 0.0
2017-Sep-18 19:31N 38°39' W 009°05'4 8.3
2017-Sep-18 19:00N 38°42' W 009°08'4 8.3
2017-Sep-18 18:30N 38°39' W 009°05'4 7.6
2017-Sep-18 18:01N 38°42' W 009°08'2 3.8
2017-Sep-18 17:30N 38°40' W 009°07'1 1.9
2017-Sep-18 17:01N 38°40' W 009°06'3 6.1
2017-Sep-18 16:30N 38°42' W 009°08'4 8.2
2017-Sep-18 16:00N 38°39' W 009°05'0 0.2
2017-Sep-18 15:30N 38°39' W 009°05'0 0.0
2017-Sep-18 08:48N 38°39' W 009°05'0 0.2
2017-Sep-18 08:30N 38°39' W 009°05'3 6.3
2017-Sep-18 08:01N 38°41' W 009°08'3 6.4
2017-Sep-18 07:30N 38°39' W 009°05'4 8.6
2017-Sep-18 07:00N 38°42' W 009°08'4 8.3
2017-Sep-18 06:30N 38°39' W 009°05'4 8.0
2017-Sep-18 06:01N 38°42' W 009°08'4 7.7
2017-Sep-18 05:30N 38°39' W 009°05'0 0.0
2017-Sep-16 10:28N 38°39' W 009°05'4 7.6
2017-Sep-16 10:00N 38°42' W 009°08'3 6.5
2017-Sep-16 09:30N 38°39' W 009°05'3 6.7
2017-Sep-16 09:01N 38°42' W 009°08'3 5.8
2017-Sep-16 08:30N 38°39' W 009°06'3 5.6
2017-Sep-16 08:00N 38°41' W 009°08'3 6.1
2017-Sep-16 07:30N 38°39' W 009°05'3 7.1
2017-Sep-16 07:00N 38°42' W 009°08'3 6.5
2017-Sep-16 06:30N 38°39' W 009°06'0 0.1
2017-Sep-16 06:00N 38°39' W 009°06'1 1.9
2017-Sep-16 05:30N 38°40' W 009°07'0 0.1
2017-Sep-16 05:00N 38°40' W 009°07'1 2.7
2017-Sep-16 04:30N 38°41' W 009°08'3 5.7
2017-Sep-16 04:00N 38°39' W 009°05'0 0.0
2017-Sep-16 03:30N 38°39' W 009°05'0 0.0
2017-Sep-16 03:00N 38°39' W 009°05'0 0.0
2017-Sep-16 02:30N 38°39' W 009°05'0 0.0
2017-Sep-16 02:00N 38°39' W 009°05'0 0.0
2017-Sep-16 01:30N 38°39' W 009°05'4 8.3
2017-Sep-16 01:00N 38°42' W 009°08'4 8.3
2017-Sep-16 00:30N 38°39' W 009°05'4 8.3
2017-Sep-16 00:00N 38°42' W 009°08'4 8.3
2017-Sep-15 23:31N 38°39' W 009°05'4 8.3
2017-Sep-15 23:00N 38°42' W 009°08'4 8.3
2017-Sep-15 22:30N 38°39' W 009°05'3 6.4
2017-Sep-15 22:00N 38°41' W 009°08'2 4.8
2017-Sep-15 21:30N 38°39' W 009°06'3 5.3
2017-Sep-15 21:00N 38°42' W 009°08'3 5.4
2017-Sep-15 20:30N 38°39' W 009°06'1 1.5
2017-Sep-15 20:01N 38°39' W 009°05'0 0.0
2017-Sep-15 19:30N 38°39' W 009°05'4 8.2
2017-Sep-15 19:00N 38°42' W 009°08'4 8.3
2017-Sep-15 18:30N 38°39' W 009°05'4 7.6
2017-Sep-15 18:00N 38°42' W 009°08'2 4.5
2017-Sep-15 17:30N 38°40' W 009°07'1 1.8
2017-Sep-15 17:00N 38°40' W 009°06'3 6.3
2017-Sep-15 16:30N 38°42' W 009°08'4 8.4
2017-Sep-15 16:00N 38°39' W 009°05'0 0.0
2017-Sep-15 10:38N 38°39' W 009°05'0 0.0
2017-Sep-15 10:30N 38°39' W 009°05'0 0.2
2017-Sep-15 10:01N 38°39' W 009°05'0 0.1
2017-Sep-15 09:30N 38°39' W 009°05'3 6.6
2017-Sep-15 09:01N 38°41' W 009°08'3 5.3
2017-Sep-15 08:30N 38°39' W 009°06'3 5.4
2017-Sep-15 08:00N 38°41' W 009°08'3 6.8
2017-Sep-15 07:30N 38°39' W 009°05'4 8.4
2017-Sep-15 07:00N 38°42' W 009°08'4 8.3
2017-Sep-15 06:30N 38°39' W 009°05'3 6.8
2017-Sep-15 06:01N 38°42' W 009°08'3 6.7
2017-Sep-15 05:30N 38°39' W 009°05'0 0.0
2017-Sep-14 20:11N 38°39' W 009°05'2 9.9
2017-Sep-14 20:01N 38°40' W 009°07'1 1.4
2017-Sep-14 19:31N 38°40' W 009°07'3 5.0
2017-Sep-14 19:00N 38°39' W 009°05'3 6.2
2017-Sep-14 18:30N 38°41' W 009°08'3 6.1
2017-Sep-14 18:00N 38°39' W 009°05'4 8.3
2017-Sep-14 17:30N 38°42' W 009°08'4 8.3
2017-Sep-14 17:01N 38°39' W 009°05'4 7.7
2017-Sep-14 16:31N 38°42' W 009°08'2 4.5
2017-Sep-14 16:01N 38°40' W 009°07'0 0.8
2017-Sep-14 15:31N 38°40' W 009°07'2 4.6
2017-Sep-14 15:00N 38°39' W 009°05'0 0.0
2017-Sep-14 14:29N 38°39' W 009°05'3 7.1
2017-Sep-14 14:01N 38°41' W 009°08'3 5.5
2017-Sep-14 13:30N 38°39' W 009°06'3 5.9
2017-Sep-14 13:01N 38°42' W 009°08'3 5.6
2017-Sep-14 12:30N 38°39' W 009°06'3 5.5
2017-Sep-14 12:00N 38°42' W 009°08'3 5.1
2017-Sep-14 11:30N 38°39' W 009°06'3 5.2
2017-Sep-14 11:00N 38°42' W 009°08'3 5.7
2017-Sep-14 10:30N 38°39' W 009°06'1 1.3
2017-Sep-14 10:00N 38°39' W 009°05'0 0.1
2017-Sep-14 09:30N 38°39' W 009°05'4 8.2
2017-Sep-14 09:01N 38°42' W 009°08'4 8.2
2017-Sep-14 08:30N 38°39' W 009°05'4 8.4
2017-Sep-14 08:00N 38°42' W 009°08'4 7.8
2017-Sep-14 07:30N 38°39' W 009°05'2 3.8
2017-Sep-14 07:00N 38°40' W 009°07'1 1.4
2017-Sep-14 06:31N 38°40' W 009°07'1 1.2
2017-Sep-14 06:01N 38°39' W 009°06'1 0.1
2017-Sep-13 20:11N 38°39' W 009°05'211.2
2017-Sep-13 20:00N 38°40' W 009°07'1 1.9
2017-Sep-13 19:31N 38°41' W 009°07'3 5.5
2017-Sep-13 19:00N 38°39' W 009°05'2 3.2
2017-Sep-13 18:30N 38°40' W 009°07'0 0.5
2017-Sep-13 18:01N 38°40' W 009°06'3 5.9
2017-Sep-13 17:30N 38°42' W 009°08'4 8.3
2017-Sep-13 17:00N 38°39' W 009°05'4 7.6
2017-Sep-13 16:30N 38°42' W 009°08'2 4.8
2017-Sep-13 16:00N 38°40' W 009°07'1 1.7
2017-Sep-13 15:31N 38°40' W 009°07'3 5.1
2017-Sep-13 15:00N 38°39' W 009°05'0 0.0
2017-Sep-13 14:30N 38°39' W 009°05'4 7.7
2017-Sep-13 14:00N 38°42' W 009°08'3 5.5
2017-Sep-13 13:31N 38°40' W 009°06'2 4.8
2017-Sep-13 13:00N 38°42' W 009°08'3 5.7
2017-Sep-13 12:31N 38°39' W 009°06'1 1.3
2017-Sep-13 12:00N 38°39' W 009°05'0 0.0
2017-Sep-13 11:30N 38°39' W 009°05'0 0.0
2017-Sep-13 11:00N 38°39' W 009°05'0 0.0
2017-Sep-13 10:30N 38°39' W 009°05'0 0.0
2017-Sep-13 10:00N 38°39' W 009°05'3 6.8
2017-Sep-13 09:30N 38°42' W 009°08'3 5.8
2017-Sep-13 09:00N 38°39' W 009°06'1 1.5
2017-Sep-13 08:30N 38°39' W 009°05'4 7.1
2017-Sep-13 08:00N 38°42' W 009°08'2 4.2
2017-Sep-13 07:31N 38°40' W 009°07'1 1.7
2017-Sep-13 07:01N 38°39' W 009°06'3 7.0
2017-Sep-13 06:30N 38°42' W 009°08'4 8.3
2017-Sep-13 06:00N 38°39' W 009°05'4 7.3
2017-Sep-13 05:30N 38°42' W 009°08'4 7.0
2017-Sep-13 05:00N 38°39' W 009°05'4 7.3
2017-Sep-13 04:31N 38°42' W 009°08'4 7.5
2017-Sep-13 04:00N 38°39' W 009°05'0 0.0
2017-Sep-13 01:24N 38°39' W 009°05'410.3
2017-Sep-13 01:00N 38°42' W 009°08'4 8.4
2017-Sep-13 00:30N 38°39' W 009°05'4 8.3
2017-Sep-13 00:00N 38°42' W 009°08'4 8.3
2017-Sep-12 23:31N 38°39' W 009°05'4 8.3
2017-Sep-12 23:00N 38°42' W 009°08'4 8.3
2017-Sep-12 22:30N 38°39' W 009°05'3 7.0
2017-Sep-12 22:01N 38°42' W 009°08'3 5.6
2017-Sep-12 21:30N 38°39' W 009°06'3 5.7
2017-Sep-12 21:00N 38°42' W 009°08'3 5.3
2017-Sep-12 20:30N 38°39' W 009°06'1 1.8
2017-Sep-12 20:00N 38°39' W 009°05'0 0.0
2017-Sep-12 19:30N 38°39' W 009°05'4 8.4
2017-Sep-12 19:00N 38°42' W 009°08'4 8.3
2017-Sep-12 18:30N 38°39' W 009°05'4 7.5
2017-Sep-12 18:01N 38°42' W 009°08'2 4.7
2017-Sep-12 17:30N 38°40' W 009°07'1 1.2
2017-Sep-12 17:01N 38°40' W 009°06'3 6.4
2017-Sep-12 16:30N 38°42' W 009°08'4 8.4
2017-Sep-12 16:00N 38°39' W 009°05'0 0.3
2017-Sep-12 15:30N 38°39' W 009°05'0 0.0
2017-Sep-12 12:29N 38°39' W 009°05'3 6.9
2017-Sep-12 12:00N 38°42' W 009°08'3 5.1
2017-Sep-12 11:31N 38°40' W 009°06'3 5.1
2017-Sep-12 11:01N 38°42' W 009°08'3 5.4
2017-Sep-12 10:30N 38°39' W 009°06'1 1.8
2017-Sep-12 10:00N 38°39' W 009°05'0 0.0
2017-Sep-12 09:30N 38°39' W 009°05'4 8.4
2017-Sep-12 09:01N 38°42' W 009°08'4 8.3
2017-Sep-12 08:30N 38°39' W 009°05'4 8.3
2017-Sep-12 08:00N 38°42' W 009°08'4 8.1
2017-Sep-12 07:30N 38°39' W 009°05'2 4.3
2017-Sep-12 07:01N 38°40' W 009°07'1 1.3
2017-Sep-12 06:30N 38°40' W 009°07'1 1.7
2017-Sep-12 06:01N 38°39' W 009°06'1 0.1
2017-Sep-11 20:18N 38°39' W 009°05'2 6.2
2017-Sep-11 20:00N 38°40' W 009°07'1 1.6
2017-Sep-11 19:31N 38°41' W 009°08'3 5.2
2017-Sep-11 19:00N 38°39' W 009°05'2 3.3
2017-Sep-11 18:31N 38°40' W 009°07'1 1.0
2017-Sep-11 18:00N 38°40' W 009°06'3 6.5
2017-Sep-11 17:30N 38°42' W 009°08'4 8.4
2017-Sep-11 17:01N 38°39' W 009°05'4 7.9
2017-Sep-11 16:31N 38°42' W 009°08'3 5.4
2017-Sep-11 16:01N 38°40' W 009°06'1 2.7
2017-Sep-11 15:30N 38°41' W 009°07'3 5.6
2017-Sep-11 15:00N 38°39' W 009°05'0 0.0
2017-Sep-11 14:30N 38°39' W 009°05'3 6.2
2017-Sep-11 14:00N 38°41' W 009°08'2 4.5
2017-Sep-11 13:30N 38°39' W 009°06'3 5.4
2017-Sep-11 13:00N 38°42' W 009°08'3 5.4
2017-Sep-11 12:30N 38°39' W 009°06'1 1.5
2017-Sep-11 12:00N 38°39' W 009°05'0 0.0
2017-Sep-11 11:30N 38°39' W 009°05'0 0.0
2017-Sep-11 11:01N 38°39' W 009°05'0 0.2
2017-Sep-11 10:31N 38°39' W 009°05'0 0.1
2017-Sep-11 10:00N 38°39' W 009°05'4 7.1
2017-Sep-11 09:31N 38°42' W 009°08'3 5.9
2017-Sep-11 09:01N 38°39' W 009°06'1 1.6
2017-Sep-11 08:30N 38°39' W 009°05'4 7.9
2017-Sep-11 08:00N 38°42' W 009°08'2 4.9
2017-Sep-11 07:30N 38°40' W 009°07'  
Track history (hours):
 
Tides and Currents Weather Stations Pressure Air Temp Water Temp Dewpoint Dewpoint Depression Visibility Wind Speed Wind Dir Waves Ship Positions

Almeida Garret

Last reported at 2017-Sep-21 07:01 UTC. Time now 2017-Sep-21 07:12 UTC.
Position N 38°40' W 009°07'.

Length 49 m.

Type: Ship (hazmat cat A). MMSI: 263701340.

Date/timePositionNaut miles runAvg speedWind from/ knotsBaromVisibWave heightAir tempDewpointWater temp
2017-Sep-21 07:01N 38°40' W 009°07'1 2.5
2017-Sep-21 06:30N 38°39' W 009°06'1 1.7
2017-Sep-21 06:00N 38°39' W 009°05'0 0.0
2017-Sep-21 05:30N 38°39' W 009°05'0 0.0
2017-Sep-20 20:21N 38°39' W 009°05'2 7.0
2017-Sep-20 20:01N 38°40' W 009°08'0 0.3
2017-Sep-20 19:31N 38°40' W 009°08'3 5.2
2017-Sep-20 19:00N 38°39' W 009°05'2 3.7
2017-Sep-20 18:31N 38°40' W 009°07'0 0.8
2017-Sep-20 18:01N 38°40' W 009°06'3 5.8
2017-Sep-20 17:30N 38°42' W 009°08'4 8.3
2017-Sep-20 17:00N 38°39' W 009°05'4 8.2
2017-Sep-20 16:31N 38°42' W 009°08'2 4.8
2017-Sep-20 16:01N 38°40' W 009°07'1 1.3
2017-Sep-20 15:31N 38°41' W 009°08'3 5.3
2017-Sep-20 15:01N 38°39' W 009°05'3 3.4
2017-Sep-20 14:01N 38°42' W 009°08'3 5.4
2017-Sep-20 13:30N 38°39' W 009°06'3 5.4
2017-Sep-20 13:01N 38°42' W 009°08'3 5.5
2017-Sep-20 12:31N 38°39' W 009°06'3 6.3
2017-Sep-20 12:00N 38°42' W 009°08'3 6.7
2017-Sep-20 11:31N 38°39' W 009°06'3 6.0
2017-Sep-20 11:00N 38°42' W 009°08'3 5.7
2017-Sep-20 10:31N 38°39' W 009°06'1 1.3
2017-Sep-20 10:00N 38°39' W 009°05'0 0.0
2017-Sep-20 09:30N 38°39' W 009°05'4 8.1
2017-Sep-20 09:01N 38°42' W 009°08'4 8.3
2017-Sep-20 08:30N 38°39' W 009°05'4 8.4
2017-Sep-20 08:01N 38°42' W 009°08'4 8.2
2017-Sep-20 07:30N 38°39' W 009°05'3 5.7
2017-Sep-20 07:01N 38°41' W 009°08'1 2.2
2017-Sep-20 06:31N 38°40' W 009°07'1 2.4
2017-Sep-20 06:01N 38°39' W 009°06'1 1.3
2017-Sep-20 05:30N 38°39' W 009°05'0 0.0
2017-Sep-19 20:20N 38°39' W 009°05'2 5.6
2017-Sep-19 20:00N 38°40' W 009°07'1 1.8
2017-Sep-19 19:30N 38°41' W 009°08'3 5.5
2017-Sep-19 19:00N 38°39' W 009°05'2 3.7
2017-Sep-19 18:30N 38°40' W 009°07'0 1.0
2017-Sep-19 18:01N 38°40' W 009°06'3 5.9
2017-Sep-19 17:30N 38°42' W 009°08'4 8.3
2017-Sep-19 17:00N 38°39' W 009°05'4 7.9
2017-Sep-19 16:31N 38°42' W 009°08'2 4.5
2017-Sep-19 16:00N 38°40' W 009°07'0 0.7
2017-Sep-19 15:31N 38°40' W 009°07'2 4.7
2017-Sep-19 15:00N 38°39' W 009°05'0 0.0
2017-Sep-19 14:30N 38°39' W 009°05'3 7.0
2017-Sep-19 14:00N 38°41' W 009°08'3 5.4
2017-Sep-19 13:30N 38°39' W 009°06'3 6.0
2017-Sep-19 13:00N 38°42' W 009°08'3 6.2
2017-Sep-19 12:31N 38°39' W 009°06'1 1.1
2017-Sep-19 11:58N 38°39' W 009°05'0 0.0
2017-Sep-19 11:30N 38°39' W 009°05'0 0.0
2017-Sep-19 10:58N 38°39' W 009°05'0 0.0
2017-Sep-19 10:31N 38°39' W 009°05'0 0.0
2017-Sep-19 09:58N 38°39' W 009°05'3 7.3
2017-Sep-19 09:30N 38°42' W 009°08'3 5.9
2017-Sep-19 09:00N 38°39' W 009°06'1 1.4
2017-Sep-19 08:30N 38°39' W 009°05'4 7.4
2017-Sep-19 08:01N 38°42' W 009°08'2 3.7
2017-Sep-19 07:31N 38°40' W 009°07'1 2.1
2017-Sep-19 07:00N 38°40' W 009°06'3 6.4
2017-Sep-19 06:31N 38°42' W 009°08'4 8.3
2017-Sep-19 06:00N 38°39' W 009°05'4 8.2
2017-Sep-19 05:30N 38°42' W 009°08'4 7.6
2017-Sep-19 05:00N 38°39' W 009°05'4 7.5
2017-Sep-19 04:31N 38°42' W 009°08'4 8.2
2017-Sep-19 04:01N 38°39' W 009°05'0 0.1
2017-Sep-19 01:19N 38°39' W 009°05'413.0
2017-Sep-19 01:00N 38°42' W 009°08'4 8.3
2017-Sep-19 00:30N 38°39' W 009°05'4 8.2
2017-Sep-19 00:00N 38°42' W 009°08'4 8.4
2017-Sep-18 23:30N 38°39' W 009°05'4 8.4
2017-Sep-18 23:00N 38°42' W 009°08'4 8.2
2017-Sep-18 22:30N 38°39' W 009°05'3 7.0
2017-Sep-18 22:00N 38°41' W 009°08'3 5.4
2017-Sep-18 21:30N 38°39' W 009°06'3 5.5
2017-Sep-18 21:00N 38°42' W 009°08'3 5.3
2017-Sep-18 20:31N 38°39' W 009°06'1 2.0
2017-Sep-18 20:00N 38°39' W 009°05'0 0.0
2017-Sep-18 19:31N 38°39' W 009°05'4 8.3
2017-Sep-18 19:00N 38°42' W 009°08'4 8.3
2017-Sep-18 18:30N 38°39' W 009°05'4 7.6
2017-Sep-18 18:01N 38°42' W 009°08'2 3.8
2017-Sep-18 17:30N 38°40' W 009°07'1 1.9
2017-Sep-18 17:01N 38°40' W 009°06'3 6.1
2017-Sep-18 16:30N 38°42' W 009°08'4 8.2
2017-Sep-18 16:00N 38°39' W 009°05'0 0.2
2017-Sep-18 15:30N 38°39' W 009°05'0 0.0
2017-Sep-18 08:48N 38°39' W 009°05'0 0.2
2017-Sep-18 08:30N 38°39' W 009°05'3 6.3
2017-Sep-18 08:01N 38°41' W 009°08'3 6.4
2017-Sep-18 07:30N 38°39' W 009°05'4 8.6
2017-Sep-18 07:00N 38°42' W 009°08'4 8.3
2017-Sep-18 06:30N 38°39' W 009°05'4 8.0
2017-Sep-18 06:01N 38°42' W 009°08'4 7.7
2017-Sep-18 05:30N 38°39' W 009°05'0 0.0
2017-Sep-16 10:28N 38°39' W 009°05'4 7.6
2017-Sep-16 10:00N 38°42' W 009°08'3 6.5
2017-Sep-16 09:30N 38°39' W 009°05'3 6.7
2017-Sep-16 09:01N 38°42' W 009°08'3 5.8
2017-Sep-16 08:30N 38°39' W 009°06'3 5.6
2017-Sep-16 08:00N 38°41' W 009°08'3 6.1
2017-Sep-16 07:30N 38°39' W 009°05'3 7.1
2017-Sep-16 07:00N 38°42' W 009°08'3 6.5
2017-Sep-16 06:30N 38°39' W 009°06'0 0.1
2017-Sep-16 06:00N 38°39' W 009°06'1 1.9
2017-Sep-16 05:30N 38°40' W 009°07'0 0.1
2017-Sep-16 05:00N 38°40' W 009°07'1 2.7
2017-Sep-16 04:30N 38°41' W 009°08'3 5.7
2017-Sep-16 04:00N 38°39' W 009°05'0 0.0
2017-Sep-16 03:30N 38°39' W 009°05'0 0.0
2017-Sep-16 03:00N 38°39' W 009°05'0 0.0
2017-Sep-16 02:30N 38°39' W 009°05'0 0.0
2017-Sep-16 02:00N 38°39' W 009°05'0 0.0
2017-Sep-16 01:30N 38°39' W 009°05'4 8.3
2017-Sep-16 01:00N 38°42' W 009°08'4 8.3
2017-Sep-16 00:30N 38°39' W 009°05'4 8.3
2017-Sep-16 00:00N 38°42' W 009°08'4 8.3
2017-Sep-15 23:31N 38°39' W 009°05'4 8.3
2017-Sep-15 23:00N 38°42' W 009°08'4 8.3
2017-Sep-15 22:30N 38°39' W 009°05'3 6.4
2017-Sep-15 22:00N 38°41' W 009°08'2 4.8
2017-Sep-15 21:30N 38°39' W 009°06'3 5.3
2017-Sep-15 21:00N 38°42' W 009°08'3 5.4
2017-Sep-15 20:30N 38°39' W 009°06'1 1.5
2017-Sep-15 20:01N 38°39' W 009°05'0 0.0
2017-Sep-15 19:30N 38°39' W 009°05'4 8.2
2017-Sep-15 19:00N 38°42' W 009°08'4 8.3
2017-Sep-15 18:30N 38°39' W 009°05'4 7.6
2017-Sep-15 18:00N 38°42' W 009°08'2 4.5
2017-Sep-15 17:30N 38°40' W 009°07'1 1.8
2017-Sep-15 17:00N 38°40' W 009°06'3 6.3
2017-Sep-15 16:30N 38°42' W 009°08'4 8.4
2017-Sep-15 16:00N 38°39' W 009°05'0 0.0
2017-Sep-15 10:38N 38°39' W 009°05'0 0.0
2017-Sep-15 10:30N 38°39' W 009°05'0 0.2
2017-Sep-15 10:01N 38°39' W 009°05'0 0.1
2017-Sep-15 09:30N 38°39' W 009°05'3 6.6
2017-Sep-15 09:01N 38°41' W 009°08'3 5.3
2017-Sep-15 08:30N 38°39' W 009°06'3 5.4
2017-Sep-15 08:00N 38°41' W 009°08'3 6.8
2017-Sep-15 07:30N 38°39' W 009°05'4 8.4
2017-Sep-15 07:00N 38°42' W 009°08'4 8.3
2017-Sep-15 06:30N 38°39' W 009°05'3 6.8
2017-Sep-15 06:01N 38°42' W 009°08'3 6.7
2017-Sep-15 05:30N 38°39' W 009°05'0 0.0
2017-Sep-14 20:11N 38°39' W 009°05'2 9.9
2017-Sep-14 20:01N 38°40' W 009°07'1 1.4
2017-Sep-14 19:31N 38°40' W 009°07'3 5.0
2017-Sep-14 19:00N 38°39' W 009°05'3 6.2
2017-Sep-14 18:30N 38°41' W 009°08'3 6.1
2017-Sep-14 18:00N 38°39' W 009°05'4 8.3
2017-Sep-14 17:30N 38°42' W 009°08'4 8.3
2017-Sep-14 17:01N 38°39' W 009°05'4 7.7
2017-Sep-14 16:31N 38°42' W 009°08'2 4.5
2017-Sep-14 16:01N 38°40' W 009°07'0 0.8
2017-Sep-14 15:31N 38°40' W 009°07'2 4.6
2017-Sep-14 15:00N 38°39' W 009°05'0 0.0
2017-Sep-14 14:29N 38°39' W 009°05'3 7.1
2017-Sep-14 14:01N 38°41' W 009°08'3 5.5
2017-Sep-14 13:30N 38°39' W 009°06'3 5.9
2017-Sep-14 13:01N 38°42' W 009°08'3 5.6
2017-Sep-14 12:30N 38°39' W 009°06'3 5.5
2017-Sep-14 12:00N 38°42' W 009°08'3 5.1
2017-Sep-14 11:30N 38°39' W 009°06'3 5.2
2017-Sep-14 11:00N 38°42' W 009°08'3 5.7
2017-Sep-14 10:30N 38°39' W 009°06'1 1.3
2017-Sep-14 10:00N 38°39' W 009°05'0 0.1
2017-Sep-14 09:30N 38°39' W 009°05'4 8.2
2017-Sep-14 09:01N 38°42' W 009°08'4 8.2
2017-Sep-14 08:30N 38°39' W 009°05'4 8.4
2017-Sep-14 08:00N 38°42' W 009°08'4 7.8
2017-Sep-14 07:30N 38°39' W 009°05'2 3.8
2017-Sep-14 07:00N 38°40' W 009°07'1 1.4
2017-Sep-14 06:31N 38°40' W 009°07'1 1.2
2017-Sep-14 06:01N 38°39' W 009°06'1 0.1
2017-Sep-13 20:11N 38°39' W 009°05'211.2
2017-Sep-13 20:00N 38°40' W 009°07'1 1.9
2017-Sep-13 19:31N 38°41' W 009°07'3 5.5
2017-Sep-13 19:00N 38°39' W 009°05'2 3.2
2017-Sep-13 18:30N 38°40' W 009°07'0 0.5
2017-Sep-13 18:01N 38°40' W 009°06'3 5.9
2017-Sep-13 17:30N 38°42' W 009°08'4 8.3
2017-Sep-13 17:00N 38°39' W 009°05'4 7.6
2017-Sep-13 16:30N 38°42' W 009°08'2 4.8
2017-Sep-13 16:00N 38°40' W 009°07'1 1.7
2017-Sep-13 15:31N 38°40' W 009°07'3 5.1
2017-Sep-13 15:00N 38°39' W 009°05'0 0.0
2017-Sep-13 14:30N 38°39' W 009°05'4 7.7
2017-Sep-13 14:00N 38°42' W 009°08'3 5.5
2017-Sep-13 13:31N 38°40' W 009°06'2 4.8
2017-Sep-13 13:00N 38°42' W 009°08'3 5.7
2017-Sep-13 12:31N 38°39' W 009°06'1 1.3
2017-Sep-13 12:00N 38°39' W 009°05'0 0.0
2017-Sep-13 11:30N 38°39' W 009°05'0 0.0
2017-Sep-13 11:00N 38°39' W 009°05'0 0.0
2017-Sep-13 10:30N 38°39' W 009°05'0 0.0
2017-Sep-13 10:00N 38°39' W 009°05'3 6.8
2017-Sep-13 09:30N 38°42' W 009°08'3 5.8
2017-Sep-13 09:00N 38°39' W 009°06'1 1.5
2017-Sep-13 08:30N 38°39' W 009°05'4 7.1
2017-Sep-13 08:00N 38°42' W 009°08'2 4.2
2017-Sep-13 07:31N 38°40' W 009°07'1 1.7
2017-Sep-13 07:01N 38°39' W 009°06'3 7.0
2017-Sep-13 06:30N 38°42' W 009°08'4 8.3
2017-Sep-13 06:00N 38°39' W 009°05'4 7.3
2017-Sep-13 05:30N 38°42' W 009°08'4 7.0
2017-Sep-13 05:00N 38°39' W 009°05'4 7.3
2017-Sep-13 04:31N 38°42' W 009°08'4 7.5
2017-Sep-13 04:00N 38°39' W 009°05'0 0.0
2017-Sep-13 01:24N 38°39' W 009°05'410.3
2017-Sep-13 01:00N 38°42' W 009°08'4 8.4
2017-Sep-13 00:30N 38°39' W 009°05'4 8.3
2017-Sep-13 00:00N 38°42' W 009°08'4 8.3
2017-Sep-12 23:31N 38°39' W 009°05'4 8.3
2017-Sep-12 23:00N 38°42' W 009°08'4 8.3
2017-Sep-12 22:30N 38°39' W 009°05'3 7.0
2017-Sep-12 22:01N 38°42' W 009°08'3 5.6
2017-Sep-12 21:30N 38°39' W 009°06'3 5.7
2017-Sep-12 21:00N 38°42' W 009°08'3 5.3
2017-Sep-12 20:30N 38°39' W 009°06'1 1.8
2017-Sep-12 20:00N 38°39' W 009°05'0 0.0
2017-Sep-12 19:30N 38°39' W 009°05'4 8.4
2017-Sep-12 19:00N 38°42' W 009°08'4 8.3
2017-Sep-12 18:30N 38°39' W 009°05'4 7.5
2017-Sep-12 18:01N 38°42' W 009°08'2 4.7
2017-Sep-12 17:30N 38°40' W 009°07'1 1.2
2017-Sep-12 17:01N 38°40' W 009°06'3 6.4
2017-Sep-12 16:30N 38°42' W 009°08'4 8.4
2017-Sep-12 16:00N 38°39' W 009°05'0 0.3
2017-Sep-12 15:30N 38°39' W 009°05'0 0.0
2017-Sep-12 12:29N 38°39' W 009°05'3 6.9
2017-Sep-12 12:00N 38°42' W 009°08'3 5.1
2017-Sep-12 11:31N 38°40' W 009°06'3 5.1
2017-Sep-12 11:01N 38°42' W 009°08'3 5.4
2017-Sep-12 10:30N 38°39' W 009°06'1 1.8
2017-Sep-12 10:00N 38°39' W 009°05'0 0.0
2017-Sep-12 09:30N 38°39' W 009°05'4 8.4
2017-Sep-12 09:01N 38°42' W 009°08'4 8.3
2017-Sep-12 08:30N 38°39' W 009°05'4 8.3
2017-Sep-12 08:00N 38°42' W 009°08'4 8.1
2017-Sep-12 07:30N 38°39' W 009°05'2 4.3
2017-Sep-12 07:01N 38°40' W 009°07'1 1.3
2017-Sep-12 06:30N 38°40' W 009°07'1 1.7
2017-Sep-12 06:01N 38°39' W 009°06'1 0.1
2017-Sep-11 20:18N 38°39' W 009°05'2 6.2
2017-Sep-11 20:00N 38°40' W 009°07'1 1.6
2017-Sep-11 19:31N 38°41' W 009°08'3 5.2
2017-Sep-11 19:00N 38°39' W 009°05'2 3.3
2017-Sep-11 18:31N 38°40' W 009°07'1 1.0
2017-Sep-11 18:00N 38°40' W 009°06'3 6.5
2017-Sep-11 17:30N 38°42' W 009°08'4 8.4
2017-Sep-11 17:01N 38°39' W 009°05'4 7.9
2017-Sep-11 16:31N 38°42' W 009°08'3 5.4
2017-Sep-11 16:01N 38°40' W 009°06'1 2.7
2017-Sep-11 15:30N 38°41' W 009°07'3 5.6
2017-Sep-11 15:00N 38°39' W 009°05'0 0.0
2017-Sep-11 14:30N 38°39' W 009°05'3 6.2
2017-Sep-11 14:00N 38°41' W 009°08'2 4.5
2017-Sep-11 13:30N 38°39' W 009°06'3 5.4
2017-Sep-11 13:00N 38°42' W 009°08'3 5.4
2017-Sep-11 12:30N 38°39' W 009°06'1 1.5
2017-Sep-11 12:00N 38°39' W 009°05'0 0.0
2017-Sep-11 11:30N 38°39' W 009°05'0 0.0
2017-Sep-11 11:01N 38°39' W 009°05'0 0.2
2017-Sep-11 10:31N 38°39' W 009°05'0 0.1
2017-Sep-11 10:00N 38°39' W 009°05'4 7.1
2017-Sep-11 09:31N 38°42' W 009°08'3 5.9
2017-Sep-11 09:01N 38°39' W 009°06'1 1.6
2017-Sep-11 08:30N 38°39' W 009°05'4 7.9
2017-Sep-11 08:00N 38°42' W 009°08'2 4.9
2017-Sep-11 07:30N 38°40' W 009°07'  

Dump ship's entire track history